VLG6CW LEPA-LEBL
Flight info
| Callsign | VLG6CW |
|---|---|
| Flight time | 0h 32m |
| Altitude | 18000 |
| Route | ESPOR L2 NEPAL |
| Aircraft | A320/M-SDE3FGHIRWY/LB1 |
Departure
| Time | 2026-05-04 07:38 |
|---|---|
| Airport | Palma de Mallorca Airport (LEPA) |
Arrival
| Time | 2026-05-04 08:10 |
|---|---|
| Airport | Josep Tarradellas Barcelona-El Prat Airport (LEBL) |
| Time | Latitude | Longitude | Altitude | Speed | Heading |
|---|---|---|---|---|---|
| 2026-05-04 07:15 | 39.54716 | 2.73664 | 38 ft | 0 kts | 58° |
| 2026-05-04 07:28 | 39.54715 | 2.73663 | 38 ft | 1 kts | 58° |
| 2026-05-04 07:28 | 39.54703 | 2.73636 | 38 ft | 4 kts | 68° |
| 2026-05-04 07:28 | 39.54697 | 2.73604 | 38 ft | 4 kts | 99° |
| 2026-05-04 07:29 | 39.54705 | 2.73581 | 37 ft | 1 kts | 149° |
| 2026-05-04 07:29 | 39.54709 | 2.73578 | 35 ft | 0 kts | 149° |
| 2026-05-04 07:31 | 39.54707 | 2.73580 | 35 ft | 3 kts | 149° |
| 2026-05-04 07:33 | 39.55083 | 2.73922 | 38 ft | 23 kts | 329° |
| 2026-05-04 07:33 | 39.55227 | 2.73811 | 38 ft | 25 kts | 329° |
| 2026-05-04 07:33 | 39.55379 | 2.73689 | 38 ft | 26 kts | 328° |
| 2026-05-04 07:33 | 39.55539 | 2.73560 | 38 ft | 28 kts | 328° |
| 2026-05-04 07:34 | 39.55685 | 2.73557 | 38 ft | 22 kts | 54° |
| 2026-05-04 07:34 | 39.55767 | 2.73735 | 38 ft | 24 kts | 58° |
| 2026-05-04 07:34 | 39.55857 | 2.73925 | 38 ft | 26 kts | 59° |
| 2026-05-04 07:34 | 39.55951 | 2.74128 | 38 ft | 27 kts | 58° |
| 2026-05-04 07:35 | 39.56053 | 2.74340 | 38 ft | 28 kts | 58° |
| 2026-05-04 07:35 | 39.56176 | 2.74438 | 38 ft | 22 kts | 341° |
| 2026-05-04 07:35 | 39.56247 | 2.74309 | 36 ft | 17 kts | 236° |
| 2026-05-04 07:35 | 39.56219 | 2.74252 | 38 ft | 0 kts | 239° |
| 2026-05-04 07:36 | 39.56218 | 2.74251 | 38 ft | 2 kts | 239° |
| 2026-05-04 07:36 | 39.56113 | 2.74027 | 38 ft | 68 kts | 238° |
| 2026-05-04 07:38 | 39.52004 | 2.65749 | 3022 ft | 208 kts | 236° |
| 2026-05-04 07:38 | 39.51202 | 2.64159 | 3625 ft | 214 kts | 236° |
| 2026-05-04 07:38 | 39.50383 | 2.62538 | 4435 ft | 215 kts | 236° |
| 2026-05-04 07:38 | 39.49560 | 2.60918 | 5256 ft | 217 kts | 236° |
| 2026-05-04 07:39 | 39.48725 | 2.59279 | 6050 ft | 219 kts | 236° |
| 2026-05-04 07:39 | 39.47881 | 2.57623 | 6815 ft | 221 kts | 236° |
| 2026-05-04 07:39 | 39.47029 | 2.55952 | 7576 ft | 223 kts | 236° |
| 2026-05-04 07:39 | 39.46173 | 2.54266 | 8362 ft | 225 kts | 236° |
| 2026-05-04 07:40 | 39.45320 | 2.52565 | 9137 ft | 228 kts | 240° |
| 2026-05-04 07:40 | 39.44891 | 2.50551 | 9495 ft | 254 kts | 270° |
| 2026-05-04 07:40 | 39.45449 | 2.48236 | 9936 ft | 280 kts | 302° |
| 2026-05-04 07:40 | 39.46923 | 2.46471 | 10397 ft | 303 kts | 322° |
| 2026-05-04 07:41 | 39.48740 | 2.44876 | 10669 ft | 328 kts | 323° |
| 2026-05-04 07:41 | 39.50684 | 2.43199 | 11137 ft | 342 kts | 323° |
| 2026-05-04 07:41 | 39.52684 | 2.41491 | 11883 ft | 346 kts | 323° |
| 2026-05-04 07:41 | 39.54732 | 2.39822 | 12678 ft | 351 kts | 329° |
| 2026-05-04 07:42 | 39.57053 | 2.38704 | 13445 ft | 359 kts | 338° |
| 2026-05-04 07:42 | 39.59450 | 2.37742 | 14185 ft | 362 kts | 338° |
| 2026-05-04 07:42 | 39.61869 | 2.36769 | 14846 ft | 366 kts | 338° |
| 2026-05-04 07:42 | 39.64277 | 2.35794 | 15508 ft | 369 kts | 337° |
| 2026-05-04 07:43 | 39.66744 | 2.34793 | 16165 ft | 373 kts | 337° |
| 2026-05-04 07:43 | 39.69232 | 2.33783 | 16813 ft | 377 kts | 337° |
| 2026-05-04 07:43 | 39.71751 | 2.32761 | 17438 ft | 381 kts | 336° |
| 2026-05-04 07:43 | 39.74294 | 2.31725 | 17879 ft | 385 kts | 336° |
| 2026-05-04 07:44 | 39.76858 | 2.30677 | 17978 ft | 392 kts | 336° |
| 2026-05-04 07:44 | 39.79496 | 2.29594 | 18000 ft | 400 kts | 336° |
| 2026-05-04 07:44 | 39.82160 | 2.28506 | 17989 ft | 402 kts | 337° |
| 2026-05-04 07:44 | 39.84830 | 2.27419 | 17993 ft | 403 kts | 337° |
| 2026-05-04 07:45 | 39.87509 | 2.26332 | 17999 ft | 403 kts | 337° |
| 2026-05-04 07:45 | 39.90186 | 2.25244 | 17992 ft | 403 kts | 337° |
| 2026-05-04 07:45 | 39.92865 | 2.24153 | 17991 ft | 403 kts | 337° |
| 2026-05-04 07:45 | 39.95535 | 2.23063 | 17987 ft | 403 kts | 337° |
| 2026-05-04 07:46 | 39.98218 | 2.21966 | 17992 ft | 403 kts | 337° |
| 2026-05-04 07:46 | 40.00896 | 2.20868 | 17990 ft | 403 kts | 337° |
| 2026-05-04 07:46 | 40.03574 | 2.19766 | 17993 ft | 403 kts | 337° |
| 2026-05-04 07:46 | 40.06220 | 2.18677 | 17986 ft | 404 kts | 337° |
| 2026-05-04 07:47 | 40.08898 | 2.17574 | 17994 ft | 404 kts | 337° |
| 2026-05-04 07:47 | 40.11578 | 2.16469 | 18000 ft | 404 kts | 337° |
| 2026-05-04 07:47 | 40.14259 | 2.15363 | 17991 ft | 404 kts | 337° |
| 2026-05-04 07:49 | 40.33023 | 2.07607 | 17994 ft | 404 kts | 337° |
| 2026-05-04 07:49 | 40.35706 | 2.06490 | 17993 ft | 404 kts | 337° |
| 2026-05-04 07:49 | 40.38390 | 2.05372 | 17991 ft | 404 kts | 337° |
| 2026-05-04 07:50 | 40.41069 | 2.04257 | 17988 ft | 404 kts | 337° |
| 2026-05-04 07:50 | 40.43750 | 2.03144 | 17988 ft | 404 kts | 337° |
| 2026-05-04 07:50 | 40.46431 | 2.02029 | 17986 ft | 404 kts | 337° |
| 2026-05-04 07:50 | 40.49111 | 2.00914 | 17987 ft | 404 kts | 337° |
| 2026-05-04 07:51 | 40.51794 | 1.99796 | 17984 ft | 404 kts | 337° |
| 2026-05-04 07:51 | 40.54421 | 1.98707 | 17899 ft | 388 kts | 337° |
| 2026-05-04 07:51 | 40.56922 | 1.97674 | 17744 ft | 375 kts | 337° |
| 2026-05-04 07:51 | 40.59388 | 1.96653 | 17421 ft | 368 kts | 337° |
| 2026-05-04 07:52 | 40.61818 | 1.95637 | 16978 ft | 365 kts | 337° |
| 2026-05-04 07:52 | 40.64222 | 1.94624 | 16531 ft | 362 kts | 337° |
| 2026-05-04 07:52 | 40.66651 | 1.93754 | 16083 ft | 364 kts | 346° |
| 2026-05-04 07:52 | 40.69195 | 1.93629 | 15652 ft | 369 kts | 1° |
| 2026-05-04 07:53 | 40.71708 | 1.94371 | 15219 ft | 373 kts | 17° |
| 2026-05-04 07:54 | 40.87436 | 2.05478 | 12552 ft | 349 kts | 26° |
| 2026-05-04 07:55 | 40.89534 | 2.06988 | 12418 ft | 338 kts | 26° |
| 2026-05-04 07:55 | 40.91564 | 2.08453 | 12288 ft | 328 kts | 26° |
| 2026-05-04 07:55 | 40.93539 | 2.09888 | 12076 ft | 321 kts | 27° |
| 2026-05-04 07:55 | 40.95453 | 2.11314 | 11778 ft | 318 kts | 27° |
| 2026-05-04 07:56 | 40.97371 | 2.12762 | 11461 ft | 316 kts | 28° |
| 2026-05-04 07:56 | 40.99269 | 2.14200 | 11142 ft | 314 kts | 28° |
| 2026-05-04 07:56 | 41.01161 | 2.15630 | 10826 ft | 311 kts | 28° |
| 2026-05-04 07:56 | 41.03035 | 2.17044 | 10511 ft | 309 kts | 28° |
| 2026-05-04 07:57 | 41.04898 | 2.18448 | 10195 ft | 307 kts | 28° |
| 2026-05-04 07:57 | 41.06748 | 2.19843 | 9880 ft | 305 kts | 28° |
| 2026-05-04 07:57 | 41.08580 | 2.21228 | 9525 ft | 303 kts | 28° |
| 2026-05-04 07:57 | 41.10405 | 2.22608 | 9154 ft | 301 kts | 28° |
| 2026-05-04 07:58 | 41.12217 | 2.23977 | 8786 ft | 299 kts | 28° |
| 2026-05-04 07:58 | 41.13413 | 2.24880 | 8531 ft | 298 kts | 28° |
| 2026-05-04 07:58 | 41.15212 | 2.26239 | 8160 ft | 297 kts | 28° |
| 2026-05-04 07:58 | 41.16953 | 2.27682 | 7985 ft | 295 kts | 38° |
| 2026-05-04 07:59 | 41.18409 | 2.29604 | 7993 ft | 297 kts | 52° |
| 2026-05-04 07:59 | 41.19561 | 2.31875 | 7995 ft | 297 kts | 58° |
| 2026-05-04 07:59 | 41.20685 | 2.34174 | 7995 ft | 297 kts | 57° |
| 2026-05-04 07:59 | 41.21806 | 2.36462 | 7754 ft | 294 kts | 57° |
| 2026-05-04 08:00 | 41.22913 | 2.38683 | 7615 ft | 283 kts | 53° |
| 2026-05-04 08:00 | 41.24341 | 2.40365 | 7492 ft | 270 kts | 26° |
| 2026-05-04 08:00 | 41.26093 | 2.41031 | 7342 ft | 258 kts | 360° |
| 2026-05-04 08:02 | 41.35267 | 2.46353 | 5231 ft | 253 kts | 64° |
| 2026-05-04 08:02 | 41.36276 | 2.48177 | 5076 ft | 246 kts | 40° |
| 2026-05-04 08:02 | 41.37726 | 2.49268 | 4949 ft | 235 kts | 14° |
| 2026-05-04 08:03 | 41.39305 | 2.49473 | 4781 ft | 225 kts | 349° |
| 2026-05-04 08:03 | 41.40738 | 2.48813 | 4562 ft | 215 kts | 321° |
| 2026-05-04 08:03 | 41.41738 | 2.47413 | 4321 ft | 206 kts | 295° |
| 2026-05-04 08:03 | 41.42150 | 2.45628 | 4082 ft | 200 kts | 270° |
| 2026-05-04 08:04 | 41.41938 | 2.43829 | 3825 ft | 197 kts | 246° |
| 2026-05-04 08:04 | 41.41377 | 2.42163 | 3557 ft | 198 kts | 246° |
| 2026-05-04 08:04 | 41.40810 | 2.40492 | 3307 ft | 197 kts | 246° |
| 2026-05-04 08:04 | 41.40247 | 2.38828 | 3091 ft | 196 kts | 246° |
| 2026-05-04 08:05 | 41.39686 | 2.37171 | 2999 ft | 197 kts | 246° |
| 2026-05-04 08:05 | 41.39123 | 2.35507 | 3008 ft | 197 kts | 246° |
| 2026-05-04 08:05 | 41.38561 | 2.33850 | 2995 ft | 197 kts | 246° |
| 2026-05-04 08:05 | 41.37997 | 2.32185 | 3005 ft | 197 kts | 246° |
| 2026-05-04 08:06 | 41.37440 | 2.30543 | 2989 ft | 197 kts | 246° |
| 2026-05-04 08:06 | 41.36876 | 2.28881 | 2949 ft | 198 kts | 245° |
| 2026-05-04 08:06 | 41.36309 | 2.27214 | 2750 ft | 197 kts | 246° |
| 2026-05-04 08:06 | 41.35744 | 2.25550 | 2516 ft | 195 kts | 246° |
| 2026-05-04 08:08 | 41.32389 | 2.15698 | 919 ft | 149 kts | 246° |
| 2026-05-04 08:08 | 41.31967 | 2.14462 | 727 ft | 144 kts | 246° |
| 2026-05-04 08:10 | 41.29645 | 2.08140 | 3 ft | 18 kts | 215° |
| 2026-05-04 08:11 | 41.29571 | 2.08004 | 3 ft | 20 kts | 246° |
| 2026-05-04 08:11 | 41.29407 | 2.07860 | 3 ft | 15 kts | 154° |
| 2026-05-04 08:11 | 41.29316 | 2.07913 | 5 ft | 14 kts | 156° |
| 2026-05-04 08:12 | 41.29239 | 2.07970 | 3 ft | 12 kts | 143° |
| 2026-05-04 08:12 | 41.29184 | 2.08012 | 3 ft | 4 kts | 154° |
| 2026-05-04 08:12 | 41.29178 | 2.08016 | 3 ft | 0 kts | 155° |